Terminal Aerodrome Forecast
Issued by NWS

Home | Current Version | Previous Version | Text Only | Print | Product List | Glossary On
Versions: 1 2 3 4 5 6 7 8 9 10 11 12 13 14 15 16 17 18
000
FTUS45 KBOU 211518 AAA
TAFBJC
TAF AMD
KBJC 211518Z 2115/2212 VRB04KT P6SM FEW120
     FM211700 04009KT P6SM FEW120
     FM212200 06009KT P6SM SCT080 BKN140 PROB30 2200/2202 VRB18G30KT
      -TSRA BKN080CB
     FM220200 VRB05KT P6SM FEW090 BKN180
     FM220500 25008KT P6SM FEW110 SCT200=

USA.gov is the U.S. government's official web portal to all federal, state and local government web resources and services.